createdAt,value
2018-12-05T00:01:09.642Z,5.77
2018-12-05T00:03:39.717Z,5.70
2018-12-05T00:06:09.047Z,6.07
2018-12-05T00:08:38.526Z,6.03
2018-12-05T00:11:08.342Z,7.40
2018-12-05T00:13:38.385Z,6.90
2018-12-05T00:16:07.766Z,4.60
2018-12-05T00:18:37.882Z,4.43
2018-12-05T00:21:08.227Z,7.23
2018-12-05T00:23:38.374Z,5.75
2018-12-05T00:26:07.575Z,5.00
2018-12-05T00:28:36.924Z,5.60
2018-12-05T00:31:06.329Z,6.00
2018-12-05T00:33:36.216Z,5.53
2018-12-05T00:36:05.543Z,7.33
2018-12-05T00:38:34.810Z,5.92
2018-12-05T00:41:07.169Z,5.90
2018-12-05T00:43:36.619Z,5.37
2018-12-05T00:46:06.409Z,5.17
2018-12-05T00:48:35.821Z,6.13
2018-12-05T00:51:05.700Z,6.08
2018-12-05T00:53:35.142Z,6.90
2018-12-05T00:56:04.632Z,6.78
2018-12-05T00:58:34.317Z,5.77
2018-12-05T01:01:05.692Z,5.23
2018-12-05T01:03:35.690Z,5.60
2018-12-05T01:06:05.860Z,5.87
2018-12-05T01:08:36.067Z,5.33
2018-12-05T01:11:05.490Z,6.20
2018-12-05T01:13:35.743Z,6.50
2018-12-05T01:16:05.592Z,7.00
2018-12-05T01:18:36.120Z,5.20
2018-12-05T01:21:06.041Z,6.37
2018-12-05T01:23:35.294Z,5.25
2018-12-05T01:26:04.684Z,6.63
2018-12-05T01:28:34.491Z,4.93
2018-12-05T01:31:03.919Z,6.65
2018-12-05T01:33:34.157Z,6.23
2018-12-05T01:36:04.472Z,5.67
2018-12-05T01:38:33.947Z,8.60
2018-12-05T01:41:03.910Z,6.20
2018-12-05T01:43:39.303Z,5.73
2018-12-05T01:46:08.642Z,5.93
2018-12-05T01:48:38.781Z,5.40
2018-12-05T01:51:08.405Z,5.60
2018-12-05T01:53:38.572Z,5.40
2018-12-05T01:56:07.880Z,6.27
2018-12-05T01:58:37.287Z,8.40
2018-12-05T02:01:07.225Z,10.93
2018-12-05T02:03:37.394Z,5.80
2018-12-05T02:06:06.790Z,5.90
2018-12-05T02:08:36.034Z,10.10
2018-12-05T02:11:05.329Z,6.00
2018-12-05T02:13:34.570Z,8.43
2018-12-05T02:16:05.495Z,5.80
2018-12-05T02:18:35.798Z,5.73
2018-12-05T02:21:05.077Z,6.00
2018-12-05T02:23:34.418Z,5.37
2018-12-05T02:26:04.447Z,4.53
2018-12-05T02:28:33.692Z,5.70
2018-12-05T02:31:03.799Z,9.00
2018-12-05T02:33:33.315Z,5.23
2018-12-05T02:36:02.936Z,6.03
2018-12-05T02:38:32.524Z,4.87
2018-12-05T02:41:01.977Z,5.50
2018-12-05T02:43:32.061Z,6.10
2018-12-05T02:46:02.391Z,5.30
2018-12-05T02:48:31.677Z,8.93
2018-12-05T02:51:01.268Z,8.33
2018-12-05T02:53:30.613Z,7.33
2018-12-05T02:55:59.920Z,8.33
2018-12-05T02:58:30.043Z,5.97
2018-12-05T03:00:59.496Z,9.27
2018-12-05T03:03:29.576Z,8.20
2018-12-05T03:05:59.067Z,6.87
2018-12-05T03:08:29.042Z,7.30
2018-12-05T03:12:22.838Z,9.58
2018-12-05T03:14:52.336Z,5.07
2018-12-05T03:17:21.620Z,5.93
2018-12-05T03:19:50.867Z,6.57
2018-12-05T03:22:20.415Z,7.42
2018-12-05T03:24:49.890Z,5.63
2018-12-05T03:27:19.287Z,5.85
2018-12-05T03:29:48.555Z,7.93
2018-12-05T03:32:20.081Z,5.25
2018-12-05T03:34:50.228Z,8.27
2018-12-05T03:37:21.378Z,6.20
2018-12-05T03:39:51.287Z,5.40
2018-12-05T03:42:20.582Z,6.13
2018-12-05T03:44:49.935Z,5.57
2018-12-05T03:47:19.159Z,6.50
2018-12-05T03:49:53.956Z,10.00
2018-12-05T03:52:23.436Z,6.57
2018-12-05T03:54:53.111Z,6.40
2018-12-05T03:57:22.567Z,5.77
2018-12-05T03:59:51.928Z,5.67
2018-12-05T04:02:22.102Z,5.57
2018-12-05T04:04:52.290Z,6.00
2018-12-05T04:07:22.450Z,7.03
2018-12-05T04:09:51.720Z,8.53
2018-12-05T04:12:20.953Z,25.40
2018-12-05T04:14:51.118Z,16.20
2018-12-05T04:17:21.230Z,13.78
2018-12-05T04:19:50.527Z,9.10
2018-12-05T04:22:19.977Z,18.83
2018-12-05T04:24:49.662Z,6.17
2018-12-05T04:27:19.097Z,7.77
2018-12-05T04:29:49.067Z,5.63
2018-12-05T04:32:18.651Z,7.60
2018-12-05T04:34:48.048Z,11.73
2018-12-05T04:37:18.921Z,6.13
2018-12-05T04:39:48.249Z,5.33
2018-12-05T04:42:17.644Z,4.90
2018-12-05T04:44:47.084Z,6.50
2018-12-05T04:47:16.434Z,7.17
2018-12-05T04:49:45.712Z,5.77
2018-12-05T04:52:15.331Z,5.47
2018-12-05T04:54:45.466Z,7.57
2018-12-05T04:57:14.871Z,6.70
2018-12-05T04:59:44.127Z,9.80
2018-12-05T05:02:13.528Z,11.68
2018-12-05T05:04:43.595Z,11.30
2018-12-05T05:07:13.668Z,9.90
2018-12-05T05:09:43.074Z,9.40
2018-12-05T05:12:12.351Z,9.40
2018-12-05T05:14:41.807Z,11.17
2018-12-05T05:17:11.514Z,8.88
2018-12-05T05:19:40.714Z,8.10
2018-12-05T05:22:09.963Z,15.30
2018-12-05T05:24:39.187Z,7.47
2018-12-05T05:27:08.552Z,9.30
2018-12-05T05:29:38.093Z,9.70
2018-12-05T05:32:07.727Z,10.00
2018-12-05T05:34:37.022Z,11.37
2018-12-05T05:37:06.484Z,10.47
2018-12-05T05:39:36.572Z,14.67
2018-12-05T05:42:06.465Z,8.37
2018-12-05T05:44:35.884Z,8.50
2018-12-05T05:47:05.313Z,14.70
2018-12-05T05:49:34.847Z,9.73
2018-12-05T05:52:04.438Z,15.98
2018-12-05T05:54:34.786Z,13.00
2018-12-05T05:57:04.512Z,9.97
2018-12-05T05:59:34.028Z,11.65
2018-12-05T06:02:04.492Z,8.90
2018-12-05T06:04:33.877Z,9.07
2018-12-05T06:07:03.770Z,9.17
2018-12-05T06:09:33.067Z,11.00
2018-12-05T06:12:03.368Z,12.97
2018-12-05T06:14:33.268Z,10.13
2018-12-05T06:17:02.608Z,9.60
2018-12-05T06:19:31.825Z,8.27
2018-12-05T06:22:01.157Z,9.80
2018-12-05T06:24:30.936Z,9.10
2018-12-05T06:27:00.464Z,14.33
2018-12-05T06:29:30.006Z,9.33
2018-12-05T06:32:00.562Z,8.55
2018-12-05T06:34:30.057Z,14.03
2018-12-05T06:37:00.182Z,9.87
2018-12-05T06:39:30.595Z,10.70
2018-12-05T06:42:00.794Z,10.20
2018-12-05T06:44:30.802Z,8.03
2018-12-05T06:47:00.719Z,14.53
2018-12-05T06:49:30.338Z,23.23
2018-12-05T06:51:59.669Z,10.90
2018-12-05T06:54:29.661Z,11.37
2018-12-05T06:56:59.792Z,8.50
2018-12-05T06:59:29.148Z,8.40
2018-12-05T07:01:58.619Z,9.40
2018-12-05T07:04:28.306Z,7.92
2018-12-05T07:06:57.707Z,11.03
2018-12-05T07:09:26.962Z,9.00
2018-12-05T07:11:56.371Z,7.87
2018-12-05T07:14:25.737Z,8.98
2018-12-05T07:16:55.307Z,8.63
2018-12-05T07:19:24.898Z,14.07
2018-12-05T07:21:55.018Z,9.13
2018-12-05T07:24:24.389Z,10.60
2018-12-05T07:26:54.412Z,9.30
2018-12-05T07:29:24.561Z,11.73
2018-12-05T07:31:54.730Z,10.90
2018-12-05T07:34:24.162Z,13.60
2018-12-05T07:36:53.484Z,11.07
2018-12-05T07:39:23.505Z,12.33
2018-12-05T07:41:53.055Z,16.57
2018-12-05T07:44:23.354Z,12.53
2018-12-05T07:46:53.203Z,11.73
2018-12-05T07:49:22.413Z,8.47
2018-12-05T07:51:51.677Z,9.10
2018-12-05T07:54:21.664Z,9.97
2018-12-05T07:56:50.994Z,9.10
2018-12-05T07:59:20.263Z,8.20
2018-12-05T08:01:49.702Z,10.57
2018-12-05T08:04:19.179Z,8.67
2018-12-05T08:06:48.834Z,10.37
2018-12-05T08:09:18.275Z,8.60
2018-12-05T08:11:47.720Z,11.30
2018-12-05T08:14:17.243Z,12.10
2018-12-05T08:16:46.729Z,10.40
2018-12-05T08:19:16.092Z,22.93
2018-12-05T08:21:45.779Z,12.00
2018-12-05T08:24:15.282Z,9.80
2018-12-05T08:26:45.522Z,12.75
2018-12-05T08:29:15.727Z,10.77
2018-12-05T08:31:45.123Z,9.38
2018-12-05T08:34:15.183Z,8.93
2018-12-05T08:36:44.581Z,8.97
2018-12-05T08:39:14.277Z,10.47
2018-12-05T08:41:43.786Z,11.77
2018-12-05T08:44:13.212Z,9.97
2018-12-05T08:46:43.244Z,11.30
2018-12-05T08:49:12.506Z,11.77
2018-12-05T08:51:41.944Z,11.03
2018-12-05T08:54:11.851Z,10.30
2018-12-05T08:56:41.169Z,13.03
2018-12-05T08:59:10.448Z,15.10
2018-12-05T09:01:40.486Z,12.30
2018-12-05T09:04:10.342Z,12.93
2018-12-05T09:06:41.142Z,11.25
2018-12-05T09:09:10.742Z,10.10
2018-12-05T09:11:40.238Z,10.93
2018-12-05T09:14:09.608Z,10.90
2018-12-05T09:16:38.976Z,11.33
2018-12-05T09:19:08.487Z,11.50
2018-12-05T09:21:38.127Z,18.37
2018-12-05T09:24:07.507Z,10.50
2018-12-05T09:26:37.662Z,39.03
2018-12-05T09:29:07.703Z,48.05
2018-12-05T09:31:37.299Z,23.00
2018-12-05T09:34:06.854Z,16.55
2018-12-05T09:36:36.388Z,15.20
2018-12-05T09:39:08.647Z,17.30
2018-12-05T09:41:38.708Z,12.23
2018-12-05T09:44:08.784Z,27.02
2018-12-05T09:46:38.295Z,14.65
2018-12-05T09:49:07.702Z,14.90
2018-12-05T09:51:37.585Z,13.80
2018-12-05T09:54:07.199Z,20.57
2018-12-05T09:56:36.671Z,20.23
2018-12-05T09:59:06.143Z,14.50
2018-12-05T10:01:35.579Z,15.80
2018-12-05T10:04:05.612Z,13.83
2018-12-05T10:06:35.053Z,12.97
2018-12-05T10:09:07.667Z,13.53
2018-12-05T10:11:37.248Z,15.10
2018-12-05T10:14:07.101Z,12.00
2018-12-05T10:16:36.676Z,13.05
2018-12-05T10:19:06.779Z,13.80
2018-12-05T10:21:36.127Z,16.10
2018-12-05T10:24:05.409Z,18.13
2018-12-05T10:26:34.649Z,19.83
2018-12-05T10:29:04.753Z,14.27
2018-12-05T10:31:33.991Z,19.63
2018-12-05T10:34:04.202Z,15.77
2018-12-05T10:36:33.592Z,14.97
2018-12-05T10:39:05.834Z,12.43
2018-12-05T10:41:36.333Z,12.63
2018-12-05T10:44:05.863Z,16.13
2018-12-05T10:46:36.993Z,14.95
2018-12-05T10:49:08.222Z,13.38
2018-12-05T10:51:37.538Z,12.13
2018-12-05T10:54:06.809Z,14.33
2018-12-05T10:56:36.197Z,13.30
2018-12-05T10:59:05.885Z,15.27
2018-12-05T11:01:40.566Z,13.00
2018-12-05T11:04:15.322Z,14.30
2018-12-05T11:06:49.707Z,17.80
2018-12-05T11:09:24.393Z,12.20
2018-12-05T11:11:59.876Z,15.10
2018-12-05T11:14:34.271Z,14.00
2018-12-05T11:17:08.807Z,13.03
2018-12-05T11:19:43.465Z,13.78
2018-12-05T11:22:18.173Z,15.83
2018-12-05T11:24:50.006Z,14.87
2018-12-05T11:27:19.247Z,13.47
2018-12-05T11:29:48.633Z,15.00
2018-12-05T11:32:18.615Z,19.52
2018-12-05T11:34:48.773Z,14.18
2018-12-05T11:37:18.281Z,14.97
2018-12-05T11:39:47.923Z,12.77
2018-12-05T11:42:17.287Z,12.87
2018-12-05T11:44:46.798Z,13.63
2018-12-05T11:47:16.143Z,23.00
2018-12-05T11:49:46.123Z,16.93
2018-12-05T11:52:15.686Z,18.30
2018-12-05T11:54:45.446Z,13.90
2018-12-05T11:57:14.823Z,18.97
2018-12-05T11:59:44.148Z,16.00
2018-12-05T12:02:13.387Z,13.50
2018-12-05T12:04:43.346Z,15.40
2018-12-05T12:07:12.708Z,15.23
2018-12-05T12:09:43.123Z,15.33
2018-12-05T12:12:17.723Z,15.23
2018-12-05T12:14:47.099Z,16.07
2018-12-05T12:17:16.521Z,12.77
2018-12-05T12:19:46.902Z,13.23
2018-12-05T12:22:16.377Z,12.65
2018-12-05T12:24:45.889Z,12.37
2018-12-05T12:27:16.151Z,14.20
2018-12-05T12:29:45.629Z,13.67
2018-12-05T12:32:15.549Z,17.87
2018-12-05T12:34:45.086Z,13.70
2018-12-05T12:37:15.074Z,14.10
2018-12-05T12:39:44.516Z,17.23
2018-12-05T12:42:14.374Z,15.93
2018-12-05T12:44:44.656Z,29.43
2018-12-05T12:47:14.853Z,15.13
2018-12-05T12:49:44.183Z,13.37
2018-12-05T12:52:13.498Z,12.73
2018-12-05T12:54:43.122Z,14.47
2018-12-05T12:57:12.653Z,12.60
2018-12-05T12:59:41.963Z,19.77
2018-12-05T13:02:11.322Z,17.10
2018-12-05T13:04:40.698Z,14.40
2018-12-05T13:07:10.624Z,13.60
2018-12-05T13:09:39.951Z,14.87
2018-12-05T13:12:12.067Z,14.60
2018-12-05T13:14:42.112Z,13.60
2018-12-05T13:17:11.752Z,14.43
2018-12-05T13:19:41.578Z,13.30
2018-12-05T13:22:10.913Z,17.10
2018-12-05T13:24:40.482Z,17.13
2018-12-05T13:27:10.230Z,12.53
2018-12-05T13:29:39.500Z,15.88
2018-12-05T13:32:08.808Z,15.13
2018-12-05T13:34:38.443Z,14.05
2018-12-05T13:37:08.149Z,13.30
2018-12-05T13:39:37.450Z,16.07
2018-12-05T13:42:07.593Z,20.17
2018-12-05T13:44:36.848Z,17.07
2018-12-05T13:47:06.448Z,21.83
2018-12-05T13:49:36.105Z,18.60
2018-12-05T13:52:06.318Z,14.90
2018-12-05T13:54:35.734Z,25.10
2018-12-05T13:57:05.310Z,18.80
2018-12-05T13:59:34.703Z,17.40
2018-12-05T14:02:04.234Z,19.12
2018-12-05T14:04:34.399Z,15.20
2018-12-05T14:07:04.643Z,16.93
2018-12-05T14:09:33.998Z,21.80
2018-12-05T14:12:03.855Z,23.37
2018-12-05T14:14:33.278Z,16.93
2018-12-05T14:17:02.715Z,20.83
2018-12-05T14:19:32.704Z,16.60
2018-12-05T14:22:02.084Z,14.17
2018-12-05T14:24:31.636Z,14.67
2018-12-05T14:27:01.974Z,15.67
2018-12-05T14:29:31.443Z,14.27
2018-12-05T14:32:00.854Z,14.70
2018-12-05T14:34:30.916Z,16.63
2018-12-05T14:37:00.454Z,20.57
2018-12-05T14:39:29.986Z,17.67
2018-12-05T14:41:59.572Z,16.45
2018-12-05T14:44:28.944Z,15.97
2018-12-05T14:46:58.598Z,18.20
2018-12-05T14:49:28.150Z,16.20
2018-12-05T14:51:57.584Z,13.80
2018-12-05T14:54:26.961Z,12.73
2018-12-05T14:56:56.929Z,14.97
2018-12-05T14:59:27.021Z,15.10
2018-12-05T15:01:56.491Z,17.43
2018-12-05T15:04:27.403Z,14.33
2018-12-05T15:06:57.675Z,14.10
2018-12-05T15:09:27.944Z,14.20
2018-12-05T15:11:58.100Z,10.00
2018-12-05T15:14:27.335Z,13.03
2018-12-05T15:16:57.424Z,21.93
2018-12-05T15:19:27.932Z,15.17
2018-12-05T15:21:57.324Z,15.07
2018-12-05T15:24:26.972Z,14.40
2018-12-05T15:26:57.342Z,14.13
2018-12-05T15:29:27.626Z,13.10
2018-12-05T15:31:58.118Z,17.60
2018-12-05T15:34:27.815Z,8.23
2018-12-05T15:36:58.141Z,9.33
2018-12-05T15:39:27.545Z,24.53
2018-12-05T15:41:57.682Z,7.60
2018-12-05T15:44:27.500Z,9.05
2018-12-05T15:46:57.871Z,7.75
2018-12-05T15:49:27.292Z,7.23
2018-12-05T15:51:57.460Z,6.90
2018-12-05T15:54:27.466Z,5.50
2018-12-05T15:56:56.859Z,7.10
2018-12-05T15:59:26.517Z,6.40
2018-12-05T16:01:56.131Z,13.90
2018-12-05T16:04:25.687Z,6.80
2018-12-05T16:06:55.702Z,12.20
2018-12-05T16:09:25.516Z,11.47
2018-12-05T16:11:55.990Z,10.13
2018-12-05T16:14:25.242Z,8.80
2018-12-05T16:16:55.306Z,25.63
2018-12-05T16:19:24.811Z,7.13
2018-12-05T16:21:54.879Z,6.83
2018-12-05T16:24:24.315Z,8.53
2018-12-05T16:26:54.103Z,6.73
2018-12-05T16:29:24.412Z,6.93
2018-12-05T16:31:53.899Z,28.47
2018-12-05T16:34:23.827Z,7.10
2018-12-05T16:36:53.910Z,9.27
2018-12-05T16:39:23.482Z,23.87
2018-12-05T16:41:53.353Z,10.17
2018-12-05T16:44:23.553Z,11.80
2018-12-05T16:46:53.095Z,19.50
2018-12-05T16:49:22.365Z,8.70
2018-12-05T16:51:52.211Z,7.57
2018-12-05T16:54:22.398Z,7.33
2018-12-05T16:56:52.764Z,6.10
2018-12-05T16:59:22.162Z,10.03
2018-12-05T17:01:51.736Z,13.10
2018-12-05T17:04:21.321Z,9.20
2018-12-05T17:06:50.756Z,11.30
2018-12-05T17:09:26.118Z,6.60
2018-12-05T17:11:52.030Z,6.63
2018-12-05T17:14:22.088Z,7.87
2018-12-05T17:16:51.769Z,7.30
2018-12-05T17:19:22.636Z,8.95
2018-12-05T17:21:52.020Z,7.37
2018-12-05T17:24:21.960Z,8.90
2018-12-05T17:26:51.431Z,8.93
2018-12-05T17:29:21.060Z,8.00
2018-12-05T17:31:50.501Z,7.58
2018-12-05T17:34:20.037Z,13.00
2018-12-05T17:36:50.071Z,6.73
2018-12-05T17:39:20.108Z,6.90
2018-12-05T17:41:49.540Z,10.60
2018-12-05T17:44:19.521Z,9.33
2018-12-05T17:46:49.098Z,11.00
2018-12-05T17:49:18.801Z,29.10
2018-12-05T17:51:48.256Z,22.20
2018-12-05T17:54:17.715Z,12.77
2018-12-05T17:56:47.011Z,9.33
2018-12-05T17:59:16.882Z,7.60
2018-12-05T18:01:46.362Z,15.77
2018-12-05T18:04:15.962Z,11.60
2018-12-05T18:06:45.587Z,12.95
2018-12-05T18:09:15.078Z,13.73
2018-12-05T18:11:44.616Z,15.80
2018-12-05T18:14:14.190Z,18.73
2018-12-05T18:16:43.692Z,9.70
2018-12-05T18:19:13.518Z,13.20
2018-12-05T18:21:42.938Z,10.33
2018-12-05T18:24:12.570Z,11.10
2018-12-05T18:26:42.192Z,12.53
2018-12-05T18:29:12.318Z,12.47
2018-12-05T18:31:41.731Z,14.13
2018-12-05T18:34:11.281Z,13.80
2018-12-05T18:36:41.003Z,14.90
2018-12-05T18:39:10.379Z,14.50
2018-12-05T18:41:40.507Z,17.97
2018-12-05T18:44:10.648Z,16.40
2018-12-05T18:46:40.271Z,18.37
2018-12-05T18:49:09.779Z,12.70
2018-12-05T18:51:39.387Z,12.20
2018-12-05T18:54:09.596Z,13.70
2018-12-05T18:56:39.443Z,11.07
2018-12-05T18:59:09.052Z,12.60
2018-12-05T19:01:39.176Z,12.60
2018-12-05T19:04:08.658Z,14.50
2018-12-05T19:06:38.598Z,13.53
2018-12-05T19:09:08.947Z,12.80
2018-12-05T19:11:40.453Z,15.93
2018-12-05T19:14:15.870Z,15.20
2018-12-05T19:16:45.303Z,13.50
2018-12-05T19:19:14.800Z,12.63
2018-12-05T19:21:44.613Z,14.83
2018-12-05T19:24:14.200Z,28.73
2018-12-05T19:26:44.025Z,25.03
2018-12-05T19:29:13.415Z,14.17
2018-12-05T19:31:43.253Z,13.40
2018-12-05T19:34:12.745Z,12.60
2018-12-05T19:36:42.172Z,13.60
2018-12-05T19:39:11.773Z,15.00
2018-12-05T19:41:41.313Z,13.20
2018-12-05T19:44:11.622Z,14.30
2018-12-05T19:46:41.126Z,14.78
2018-12-05T19:49:10.835Z,12.97
2018-12-05T19:51:41.290Z,13.37
2018-12-05T19:54:11.207Z,14.27
2018-12-05T19:56:40.925Z,17.43
2018-12-05T19:59:10.451Z,13.87
2018-12-05T20:01:39.986Z,14.45
2018-12-05T20:04:10.193Z,13.83
2018-12-05T20:06:39.623Z,13.50
2018-12-05T20:09:10.787Z,14.20
2018-12-05T20:11:40.451Z,19.27
2018-12-05T20:14:12.378Z,25.50
2018-12-05T20:16:42.216Z,16.20
2018-12-05T20:19:11.601Z,21.03
2018-12-05T20:21:41.402Z,14.38
2018-12-05T20:24:11.110Z,17.73
2018-12-05T20:26:41.775Z,23.40
2018-12-05T20:29:11.523Z,28.90
2018-12-05T20:31:41.751Z,20.73
2018-12-05T20:34:11.312Z,14.33
2018-12-05T20:36:40.940Z,17.90
2018-12-05T20:39:11.428Z,18.60
2018-12-05T20:41:41.183Z,21.03
2018-12-05T20:44:10.722Z,19.13
2018-12-05T20:46:40.271Z,13.63
2018-12-05T20:49:09.998Z,18.77
2018-12-05T20:51:40.122Z,13.70
2018-12-05T20:54:10.438Z,15.80
2018-12-05T20:56:40.897Z,14.30
2018-12-05T20:59:10.637Z,14.03
2018-12-05T21:01:40.398Z,12.60
2018-12-05T21:04:10.033Z,19.67
2018-12-05T21:06:40.269Z,16.60
2018-12-05T21:09:10.393Z,23.20
2018-12-05T21:11:39.954Z,21.50
2018-12-05T21:14:10.108Z,19.10
2018-12-05T21:16:39.568Z,24.43
2018-12-05T21:19:09.129Z,20.13
2018-12-05T21:21:38.533Z,21.77
2018-12-05T21:24:08.332Z,18.00
2018-12-05T21:26:38.190Z,22.70
2018-12-05T21:29:07.707Z,17.50
2018-12-05T21:31:37.165Z,13.40
2018-12-05T21:34:06.628Z,19.00
2018-12-05T21:36:36.748Z,16.10
2018-12-05T21:39:08.794Z,21.33
2018-12-05T21:41:38.354Z,18.57
2018-12-05T21:44:08.328Z,18.47
2018-12-05T21:46:38.662Z,19.70
2018-12-05T21:49:08.013Z,17.20
2018-12-05T21:51:37.416Z,22.17
2018-12-05T21:54:07.177Z,14.90
2018-12-05T21:56:36.682Z,19.53
2018-12-05T21:59:07.066Z,16.55
2018-12-05T22:01:36.830Z,17.83
2018-12-05T22:04:06.579Z,18.67
2018-12-05T22:06:36.170Z,15.90
2018-12-05T22:09:10.367Z,12.23
2018-12-05T22:11:39.847Z,18.23
2018-12-05T22:14:09.871Z,18.27
2018-12-05T22:16:39.533Z,19.20
2018-12-05T22:19:09.090Z,17.00
2018-12-05T22:21:38.489Z,14.37
2018-12-05T22:24:07.752Z,14.50
2018-12-05T22:26:37.741Z,17.07
2018-12-05T22:29:07.172Z,17.30
2018-12-05T22:31:36.492Z,15.70
2018-12-05T22:34:06.051Z,14.93
2018-12-05T22:36:35.709Z,17.00
2018-12-05T22:39:07.919Z,18.63
2018-12-05T22:41:37.344Z,18.00
2018-12-05T22:44:07.250Z,15.30
2018-12-05T22:46:36.767Z,15.63
2018-12-05T22:49:06.316Z,15.77
2018-12-05T22:51:35.991Z,15.90
2018-12-05T22:54:05.599Z,19.63
2018-12-05T22:56:35.350Z,21.63
2018-12-05T22:59:05.412Z,19.23
2018-12-05T23:01:36.557Z,16.27
2018-12-05T23:04:06.857Z,16.77
2018-12-05T23:06:36.252Z,13.87
2018-12-05T23:09:06.812Z,15.20
2018-12-05T23:11:38.428Z,13.80
2018-12-05T23:14:07.840Z,15.83
2018-12-05T23:16:37.783Z,14.90
2018-12-05T23:19:07.217Z,14.43
2018-12-05T23:21:36.738Z,16.07
2018-12-05T23:24:06.134Z,13.50
2018-12-05T23:26:36.721Z,17.57
2018-12-05T23:29:06.115Z,35.48
2018-12-05T23:31:35.603Z,16.43
2018-12-05T23:34:05.230Z,15.97
2018-12-05T23:36:35.478Z,13.50
2018-12-05T23:39:08.101Z,14.90
2018-12-05T23:41:37.827Z,15.63
2018-12-05T23:44:07.179Z,19.60
2018-12-05T23:46:36.467Z,20.17
2018-12-05T23:49:06.058Z,12.83
2018-12-05T23:51:35.938Z,14.28
2018-12-05T23:54:06.043Z,14.80
2018-12-05T23:56:35.573Z,18.47
2018-12-05T23:59:05.222Z,15.20
